sensor_id;sensor_type;location;lat;lon;timestamp;P1;durP1;ratioP1;P2;durP2;ratioP2
5135;SDS011;2586;48.710;9.202;2023-02-04T00:00:47;5.13;;;4.00;;
5135;SDS011;2586;48.710;9.202;2023-02-04T00:03:13;3.63;;;3.30;;
5135;SDS011;2586;48.710;9.202;2023-02-04T00:05:40;5.73;;;3.60;;
5135;SDS011;2586;48.710;9.202;2023-02-04T00:08:06;3.53;;;3.23;;
5135;SDS011;2586;48.710;9.202;2023-02-04T00:10:32;3.50;;;3.20;;
5135;SDS011;2586;48.710;9.202;2023-02-04T00:12:58;3.27;;;3.07;;
5135;SDS011;2586;48.710;9.202;2023-02-04T00:15:23;3.27;;;2.97;;
5135;SDS011;2586;48.710;9.202;2023-02-04T00:17:49;3.90;;;2.70;;
5135;SDS011;2586;48.710;9.202;2023-02-04T00:20:15;3.70;;;2.77;;
5135;SDS011;2586;48.710;9.202;2023-02-04T00:22:40;2.83;;;2.57;;
5135;SDS011;2586;48.710;9.202;2023-02-04T00:25:06;4.53;;;2.87;;
5135;SDS011;2586;48.710;9.202;2023-02-04T00:27:32;2.40;;;2.30;;
5135;SDS011;2586;48.710;9.202;2023-02-04T00:29:58;2.57;;;2.37;;
5135;SDS011;2586;48.710;9.202;2023-02-04T00:32:23;2.50;;;2.30;;
5135;SDS011;2586;48.710;9.202;2023-02-04T00:34:49;2.43;;;2.23;;
5135;SDS011;2586;48.710;9.202;2023-02-04T00:37:14;2.37;;;2.20;;
5135;SDS011;2586;48.710;9.202;2023-02-04T00:39:40;6.10;;;2.83;;
5135;SDS011;2586;48.710;9.202;2023-02-04T00:42:06;2.00;;;1.73;;
5135;SDS011;2586;48.710;9.202;2023-02-04T00:44:31;2.40;;;2.20;;
5135;SDS011;2586;48.710;9.202;2023-02-04T00:46:57;1.90;;;1.77;;
5135;SDS011;2586;48.710;9.202;2023-02-04T00:49:23;2.33;;;2.23;;
5135;SDS011;2586;48.710;9.202;2023-02-04T00:51:48;5.13;;;2.50;;
5135;SDS011;2586;48.710;9.202;2023-02-04T00:54:15;1.40;;;1.40;;
5135;SDS011;2586;48.710;9.202;2023-02-04T00:56:41;1.77;;;1.67;;
5135;SDS011;2586;48.710;9.202;2023-02-04T00:59:07;1.70;;;1.60;;
5135;SDS011;2586;48.710;9.202;2023-02-04T01:01:33;3.10;;;2.13;;
5135;SDS011;2586;48.710;9.202;2023-02-04T01:03:59;3.83;;;2.30;;
5135;SDS011;2586;48.710;9.202;2023-02-04T01:06:24;1.83;;;1.73;;
5135;SDS011;2586;48.710;9.202;2023-02-04T01:08:50;6.60;;;2.10;;
5135;SDS011;2586;48.710;9.202;2023-02-04T01:11:15;1.80;;;1.70;;
5135;SDS011;2586;48.710;9.202;2023-02-04T01:13:42;3.10;;;1.87;;
5135;SDS011;2586;48.710;9.202;2023-02-04T01:16:07;3.30;;;2.53;;
5135;SDS011;2586;48.710;9.202;2023-02-04T01:18:33;3.90;;;2.30;;
5135;SDS011;2586;48.710;9.202;2023-02-04T01:20:58;2.20;;;2.07;;
5135;SDS011;2586;48.710;9.202;2023-02-04T01:23:24;3.23;;;2.40;;
5135;SDS011;2586;48.710;9.202;2023-02-04T01:25:50;2.87;;;2.67;;
5135;SDS011;2586;48.710;9.202;2023-02-04T01:28:15;4.90;;;2.90;;
5135;SDS011;2586;48.710;9.202;2023-02-04T01:30:41;6.10;;;1.90;;
5135;SDS011;2586;48.710;9.202;2023-02-04T01:33:06;2.57;;;2.37;;
5135;SDS011;2586;48.710;9.202;2023-02-04T01:35:32;1.90;;;1.80;;
5135;SDS011;2586;48.710;9.202;2023-02-04T01:37:57;1.97;;;1.57;;
5135;SDS011;2586;48.710;9.202;2023-02-04T01:40:23;3.23;;;2.33;;
5135;SDS011;2586;48.710;9.202;2023-02-04T01:42:49;1.27;;;1.27;;
5135;SDS011;2586;48.710;9.202;2023-02-04T01:45:14;1.43;;;1.43;;
5135;SDS011;2586;48.710;9.202;2023-02-04T01:47:40;1.20;;;1.13;;
5135;SDS011;2586;48.710;9.202;2023-02-04T01:50:06;3.43;;;2.00;;
5135;SDS011;2586;48.710;9.202;2023-02-04T01:52:36;1.80;;;1.10;;
5135;SDS011;2586;48.710;9.202;2023-02-04T01:55:03;1.40;;;1.30;;
5135;SDS011;2586;48.710;9.202;2023-02-04T01:57:35;3.13;;;1.27;;
5135;SDS011;2586;48.710;9.202;2023-02-04T02:00:00;1.77;;;1.40;;
5135;SDS011;2586;48.710;9.202;2023-02-04T02:02:43;7.03;;;1.20;;
5135;SDS011;2586;48.710;9.202;2023-02-04T02:05:15;6.50;;;1.10;;
5135;SDS011;2586;48.710;9.202;2023-02-04T02:07:45;4.20;;;1.13;;
5135;SDS011;2586;48.710;9.202;2023-02-04T02:10:11;3.77;;;1.00;;
5135;SDS011;2586;48.710;9.202;2023-02-04T02:12:39;2.53;;;1.00;;
5135;SDS011;2586;48.710;9.202;2023-02-04T02:15:06;2.30;;;1.10;;
5135;SDS011;2586;48.710;9.202;2023-02-04T02:17:33;4.57;;;0.97;;
5135;SDS011;2586;48.710;9.202;2023-02-04T02:19:59;7.33;;;1.27;;
5135;SDS011;2586;48.710;9.202;2023-02-04T02:22:26;3.77;;;1.33;;
5135;SDS011;2586;48.710;9.202;2023-02-04T02:25:12;2.03;;;1.20;;
5135;SDS011;2586;48.710;9.202;2023-02-04T02:27:38;8.70;;;1.30;;
5135;SDS011;2586;48.710;9.202;2023-02-04T02:30:04;4.13;;;1.17;;
5135;SDS011;2586;48.710;9.202;2023-02-04T02:32:32;4.77;;;1.30;;
5135;SDS011;2586;48.710;9.202;2023-02-04T02:34:58;7.03;;;1.43;;
5135;SDS011;2586;48.710;9.202;2023-02-04T02:37:23;4.00;;;1.43;;
5135;SDS011;2586;48.710;9.202;2023-02-04T02:39:49;10.77;;;1.80;;
5135;SDS011;2586;48.710;9.202;2023-02-04T02:42:15;9.00;;;1.17;;
5135;SDS011;2586;48.710;9.202;2023-02-04T02:44:43;9.83;;;1.90;;
5135;SDS011;2586;48.710;9.202;2023-02-04T02:47:17;11.00;;;1.30;;
5135;SDS011;2586;48.710;9.202;2023-02-04T02:49:45;15.47;;;1.80;;
5135;SDS011;2586;48.710;9.202;2023-02-04T02:52:13;3.10;;;1.30;;
5135;SDS011;2586;48.710;9.202;2023-02-04T02:54:39;3.27;;;1.30;;
5135;SDS011;2586;48.710;9.202;2023-02-04T02:57:13;6.20;;;2.10;;
5135;SDS011;2586;48.710;9.202;2023-02-04T02:59:40;4.67;;;1.40;;
5135;SDS011;2586;48.710;9.202;2023-02-04T03:02:06;13.47;;;2.20;;
5135;SDS011;2586;48.710;9.202;2023-02-04T03:04:34;18.67;;;2.70;;
5135;SDS011;2586;48.710;9.202;2023-02-04T03:07:04;13.90;;;2.20;;
5135;SDS011;2586;48.710;9.202;2023-02-04T03:09:31;8.03;;;1.70;;
5135;SDS011;2586;48.710;9.202;2023-02-04T03:11:58;4.93;;;1.70;;
5135;SDS011;2586;48.710;9.202;2023-02-04T03:14:23;6.53;;;1.80;;
5135;SDS011;2586;48.710;9.202;2023-02-04T03:16:50;10.33;;;1.60;;
5135;SDS011;2586;48.710;9.202;2023-02-04T03:19:18;7.60;;;2.13;;
5135;SDS011;2586;48.710;9.202;2023-02-04T03:21:44;7.00;;;1.73;;
5135;SDS011;2586;48.710;9.202;2023-02-04T03:24:10;7.67;;;1.97;;
5135;SDS011;2586;48.710;9.202;2023-02-04T03:26:36;4.97;;;1.60;;
5135;SDS011;2586;48.710;9.202;2023-02-04T03:29:04;5.77;;;1.30;;
5135;SDS011;2586;48.710;9.202;2023-02-04T03:31:31;3.53;;;1.60;;
5135;SDS011;2586;48.710;9.202;2023-02-04T03:33:56;13.60;;;2.13;;
5135;SDS011;2586;48.710;9.202;2023-02-04T03:36:22;2.97;;;1.73;;
5135;SDS011;2586;48.710;9.202;2023-02-04T03:38:48;5.70;;;2.10;;
5135;SDS011;2586;48.710;9.202;2023-02-04T03:41:13;3.90;;;1.67;;
5135;SDS011;2586;48.710;9.202;2023-02-04T03:43:39;12.53;;;1.77;;
5135;SDS011;2586;48.710;9.202;2023-02-04T03:46:04;6.83;;;1.70;;
5135;SDS011;2586;48.710;9.202;2023-02-04T03:48:30;5.30;;;1.33;;
5135;SDS011;2586;48.710;9.202;2023-02-04T03:50:55;4.10;;;1.00;;
5135;SDS011;2586;48.710;9.202;2023-02-04T03:53:21;7.10;;;1.17;;
5135;SDS011;2586;48.710;9.202;2023-02-04T03:55:47;1.53;;;1.00;;
5135;SDS011;2586;48.710;9.202;2023-02-04T03:58:12;4.73;;;1.40;;
5135;SDS011;2586;48.710;9.202;2023-02-04T04:00:38;6.03;;;1.60;;
5135;SDS011;2586;48.710;9.202;2023-02-04T04:03:03;5.40;;;1.60;;
5135;SDS011;2586;48.710;9.202;2023-02-04T04:05:29;8.93;;;1.50;;
5135;SDS011;2586;48.710;9.202;2023-02-04T04:07:54;9.27;;;2.20;;
5135;SDS011;2586;48.710;9.202;2023-02-04T04:10:20;10.70;;;1.87;;
5135;SDS011;2586;48.710;9.202;2023-02-04T04:12:45;3.80;;;2.03;;
5135;SDS011;2586;48.710;9.202;2023-02-04T04:15:11;6.67;;;2.60;;
5135;SDS011;2586;48.710;9.202;2023-02-04T04:17:36;6.00;;;2.13;;
5135;SDS011;2586;48.710;9.202;2023-02-04T04:20:02;17.70;;;3.30;;
5135;SDS011;2586;48.710;9.202;2023-02-04T04:22:29;9.67;;;2.67;;
5135;SDS011;2586;48.710;9.202;2023-02-04T04:24:54;12.77;;;2.90;;
5135;SDS011;2586;48.710;9.202;2023-02-04T04:27:20;12.33;;;3.07;;
5135;SDS011;2586;48.710;9.202;2023-02-04T04:29:45;6.20;;;2.00;;
5135;SDS011;2586;48.710;9.202;2023-02-04T04:32:11;11.17;;;2.27;;
5135;SDS011;2586;48.710;9.202;2023-02-04T04:34:36;7.63;;;2.50;;
5135;SDS011;2586;48.710;9.202;2023-02-04T04:37:02;8.13;;;3.77;;
5135;SDS011;2586;48.710;9.202;2023-02-04T04:39:28;5.07;;;2.30;;
5135;SDS011;2586;48.710;9.202;2023-02-04T04:41:53;7.33;;;2.10;;
5135;SDS011;2586;48.710;9.202;2023-02-04T04:44:19;8.23;;;2.13;;
5135;SDS011;2586;48.710;9.202;2023-02-04T04:46:44;2.20;;;2.00;;
5135;SDS011;2586;48.710;9.202;2023-02-04T04:49:10;10.30;;;2.30;;
5135;SDS011;2586;48.710;9.202;2023-02-04T04:51:35;10.83;;;2.30;;
5135;SDS011;2586;48.710;9.202;2023-02-04T04:54:01;6.17;;;2.47;;
5135;SDS011;2586;48.710;9.202;2023-02-04T04:56:27;2.40;;;2.20;;
5135;SDS011;2586;48.710;9.202;2023-02-04T04:58:52;9.10;;;2.87;;
5135;SDS011;2586;48.710;9.202;2023-02-04T05:01:18;6.27;;;2.40;;
5135;SDS011;2586;48.710;9.202;2023-02-04T05:03:45;7.57;;;2.67;;
5135;SDS011;2586;48.710;9.202;2023-02-04T05:06:10;2.57;;;1.80;;
5135;SDS011;2586;48.710;9.202;2023-02-04T05:08:37;8.57;;;3.03;;
5135;SDS011;2586;48.710;9.202;2023-02-04T05:11:02;5.00;;;2.00;;
5135;SDS011;2586;48.710;9.202;2023-02-04T05:13:28;6.13;;;2.40;;
5135;SDS011;2586;48.710;9.202;2023-02-04T05:15:53;6.63;;;2.70;;
5135;SDS011;2586;48.710;9.202;2023-02-04T05:18:19;5.70;;;1.97;;
5135;SDS011;2586;48.710;9.202;2023-02-04T05:20:45;7.80;;;2.10;;
5135;SDS011;2586;48.710;9.202;2023-02-04T05:23:10;6.83;;;2.40;;
5135;SDS011;2586;48.710;9.202;2023-02-04T05:25:36;6.20;;;2.17;;
5135;SDS011;2586;48.710;9.202;2023-02-04T05:28:01;8.00;;;2.67;;
5135;SDS011;2586;48.710;9.202;2023-02-04T05:30:27;4.50;;;2.57;;
5135;SDS011;2586;48.710;9.202;2023-02-04T05:32:53;5.93;;;2.67;;
5135;SDS011;2586;48.710;9.202;2023-02-04T05:35:18;19.60;;;2.70;;
5135;SDS011;2586;48.710;9.202;2023-02-04T05:37:44;6.40;;;2.47;;
5135;SDS011;2586;48.710;9.202;2023-02-04T05:40:10;6.70;;;2.40;;
5135;SDS011;2586;48.710;9.202;2023-02-04T05:42:36;8.53;;;2.90;;
5135;SDS011;2586;48.710;9.202;2023-02-04T05:45:01;8.27;;;2.50;;
5135;SDS011;2586;48.710;9.202;2023-02-04T05:47:27;11.37;;;3.17;;
5135;SDS011;2586;48.710;9.202;2023-02-04T05:49:53;6.27;;;3.30;;
5135;SDS011;2586;48.710;9.202;2023-02-04T05:52:19;9.13;;;3.83;;
5135;SDS011;2586;48.710;9.202;2023-02-04T05:54:45;18.23;;;4.20;;
5135;SDS011;2586;48.710;9.202;2023-02-04T05:57:10;21.13;;;3.83;;
5135;SDS011;2586;48.710;9.202;2023-02-04T05:59:36;14.23;;;4.30;;
5135;SDS011;2586;48.710;9.202;2023-02-04T06:02:02;19.93;;;4.03;;
5135;SDS011;2586;48.710;9.202;2023-02-04T06:04:27;10.73;;;3.50;;
5135;SDS011;2586;48.710;9.202;2023-02-04T06:06:53;14.17;;;3.80;;
5135;SDS011;2586;48.710;9.202;2023-02-04T06:09:18;13.53;;;4.10;;
5135;SDS011;2586;48.710;9.202;2023-02-04T06:11:44;8.57;;;3.50;;
5135;SDS011;2586;48.710;9.202;2023-02-04T06:14:09;15.43;;;4.70;;
5135;SDS011;2586;48.710;9.202;2023-02-04T06:16:35;15.90;;;4.40;;
5135;SDS011;2586;48.710;9.202;2023-02-04T06:19:01;12.23;;;3.97;;
5135;SDS011;2586;48.710;9.202;2023-02-04T06:21:26;13.13;;;4.17;;
5135;SDS011;2586;48.710;9.202;2023-02-04T06:23:52;16.90;;;4.97;;
5135;SDS011;2586;48.710;9.202;2023-02-04T06:26:17;12.43;;;3.50;;
5135;SDS011;2586;48.710;9.202;2023-02-04T06:28:43;19.37;;;4.73;;
5135;SDS011;2586;48.710;9.202;2023-02-04T06:31:08;15.90;;;4.00;;
5135;SDS011;2586;48.710;9.202;2023-02-04T06:33:35;14.67;;;4.67;;
5135;SDS011;2586;48.710;9.202;2023-02-04T06:36:01;17.00;;;5.20;;
5135;SDS011;2586;48.710;9.202;2023-02-04T06:38:27;14.17;;;4.27;;
5135;SDS011;2586;48.710;9.202;2023-02-04T06:40:53;11.80;;;4.87;;
5135;SDS011;2586;48.710;9.202;2023-02-04T06:43:19;20.47;;;5.27;;
5135;SDS011;2586;48.710;9.202;2023-02-04T06:45:45;8.10;;;4.17;;
5135;SDS011;2586;48.710;9.202;2023-02-04T06:48:11;17.80;;;4.73;;
5135;SDS011;2586;48.710;9.202;2023-02-04T06:50:36;16.97;;;4.83;;
5135;SDS011;2586;48.710;9.202;2023-02-04T06:53:02;13.10;;;5.40;;
5135;SDS011;2586;48.710;9.202;2023-02-04T06:55:27;20.37;;;6.43;;
5135;SDS011;2586;48.710;9.202;2023-02-04T06:57:53;17.17;;;5.10;;
5135;SDS011;2586;48.710;9.202;2023-02-04T07:00:19;14.67;;;6.03;;
5135;SDS011;2586;48.710;9.202;2023-02-04T07:02:44;23.47;;;4.30;;
5135;SDS011;2586;48.710;9.202;2023-02-04T07:05:10;34.10;;;7.93;;
5135;SDS011;2586;48.710;9.202;2023-02-04T07:07:36;21.80;;;5.47;;
5135;SDS011;2586;48.710;9.202;2023-02-04T07:10:02;22.43;;;6.07;;
5135;SDS011;2586;48.710;9.202;2023-02-04T07:12:28;13.90;;;5.50;;
5135;SDS011;2586;48.710;9.202;2023-02-04T07:14:53;20.57;;;4.93;;
5135;SDS011;2586;48.710;9.202;2023-02-04T07:17:19;14.80;;;5.20;;
5135;SDS011;2586;48.710;9.202;2023-02-04T07:19:44;20.37;;;6.83;;
5135;SDS011;2586;48.710;9.202;2023-02-04T07:22:10;27.30;;;6.20;;
5135;SDS011;2586;48.710;9.202;2023-02-04T07:24:35;16.10;;;5.97;;
5135;SDS011;2586;48.710;9.202;2023-02-04T07:27:01;13.57;;;5.37;;
5135;SDS011;2586;48.710;9.202;2023-02-04T07:29:27;33.17;;;6.17;;
5135;SDS011;2586;48.710;9.202;2023-02-04T07:31:52;32.30;;;6.47;;
5135;SDS011;2586;48.710;9.202;2023-02-04T07:34:18;24.20;;;5.70;;
5135;SDS011;2586;48.710;9.202;2023-02-04T07:36:44;27.20;;;6.30;;
5135;SDS011;2586;48.710;9.202;2023-02-04T07:39:09;19.00;;;5.83;;
5135;SDS011;2586;48.710;9.202;2023-02-04T07:41:35;20.70;;;6.20;;
5135;SDS011;2586;48.710;9.202;2023-02-04T07:44:01;21.70;;;5.80;;
5135;SDS011;2586;48.710;9.202;2023-02-04T07:46:27;25.30;;;6.83;;
5135;SDS011;2586;48.710;9.202;2023-02-04T07:48:53;12.87;;;5.90;;
5135;SDS011;2586;48.710;9.202;2023-02-04T07:51:19;28.40;;;5.87;;
5135;SDS011;2586;48.710;9.202;2023-02-04T07:53:45;18.17;;;5.50;;
5135;SDS011;2586;48.710;9.202;2023-02-04T07:56:10;21.63;;;5.17;;
5135;SDS011;2586;48.710;9.202;2023-02-04T07:58:36;16.63;;;5.03;;
5135;SDS011;2586;48.710;9.202;2023-02-04T08:01:01;27.33;;;5.97;;
5135;SDS011;2586;48.710;9.202;2023-02-04T08:03:29;19.93;;;6.20;;
5135;SDS011;2586;48.710;9.202;2023-02-04T08:05:54;19.93;;;6.50;;
5135;SDS011;2586;48.710;9.202;2023-02-04T08:08:20;25.37;;;5.83;;
5135;SDS011;2586;48.710;9.202;2023-02-04T08:10:45;16.20;;;5.37;;
5135;SDS011;2586;48.710;9.202;2023-02-04T08:13:11;21.57;;;5.10;;
5135;SDS011;2586;48.710;9.202;2023-02-04T08:15:37;16.17;;;4.90;;
5135;SDS011;2586;48.710;9.202;2023-02-04T08:18:03;20.37;;;4.70;;
5135;SDS011;2586;48.710;9.202;2023-02-04T08:20:28;18.03;;;4.03;;
5135;SDS011;2586;48.710;9.202;2023-02-04T08:22:54;38.70;;;5.93;;
5135;SDS011;2586;48.710;9.202;2023-02-04T08:25:21;27.80;;;4.80;;
5135;SDS011;2586;48.710;9.202;2023-02-04T08:27:46;17.90;;;5.07;;
5135;SDS011;2586;48.710;9.202;2023-02-04T08:30:12;17.77;;;5.03;;
5135;SDS011;2586;48.710;9.202;2023-02-04T08:32:38;33.33;;;4.63;;
5135;SDS011;2586;48.710;9.202;2023-02-04T08:35:04;23.37;;;4.80;;
5135;SDS011;2586;48.710;9.202;2023-02-04T08:37:30;16.13;;;3.80;;
5135;SDS011;2586;48.710;9.202;2023-02-04T08:39:56;22.70;;;5.03;;
5135;SDS011;2586;48.710;9.202;2023-02-04T08:42:21;22.23;;;5.83;;
5135;SDS011;2586;48.710;9.202;2023-02-04T08:44:47;23.87;;;4.17;;
5135;SDS011;2586;48.710;9.202;2023-02-04T08:47:12;15.73;;;4.63;;
5135;SDS011;2586;48.710;9.202;2023-02-04T08:49:38;17.40;;;4.17;;
5135;SDS011;2586;48.710;9.202;2023-02-04T08:52:04;12.70;;;3.07;;
5135;SDS011;2586;48.710;9.202;2023-02-04T08:54:31;12.47;;;4.87;;
5135;SDS011;2586;48.710;9.202;2023-02-04T08:56:57;17.80;;;4.43;;
5135;SDS011;2586;48.710;9.202;2023-02-04T08:59:23;9.67;;;4.00;;
5135;SDS011;2586;48.710;9.202;2023-02-04T09:01:49;22.90;;;5.23;;
5135;SDS011;2586;48.710;9.202;2023-02-04T09:04:16;25.50;;;4.70;;
5135;SDS011;2586;48.710;9.202;2023-02-04T09:06:43;12.43;;;4.07;;
5135;SDS011;2586;48.710;9.202;2023-02-04T09:09:08;12.63;;;3.93;;
5135;SDS011;2586;48.710;9.202;2023-02-04T09:11:34;16.23;;;4.03;;
5135;SDS011;2586;48.710;9.202;2023-02-04T09:14:00;10.43;;;3.00;;
5135;SDS011;2586;48.710;9.202;2023-02-04T09:16:25;12.70;;;3.90;;
5135;SDS011;2586;48.710;9.202;2023-02-04T09:18:51;23.43;;;5.67;;
5135;SDS011;2586;48.710;9.202;2023-02-04T09:21:16;26.90;;;4.40;;
5135;SDS011;2586;48.710;9.202;2023-02-04T09:23:42;13.33;;;3.10;;
5135;SDS011;2586;48.710;9.202;2023-02-04T09:26:09;16.80;;;3.63;;
5135;SDS011;2586;48.710;9.202;2023-02-04T09:28:35;13.40;;;3.40;;
5135;SDS011;2586;48.710;9.202;2023-02-04T09:31:01;19.13;;;3.70;;
5135;SDS011;2586;48.710;9.202;2023-02-04T09:33:26;13.60;;;3.20;;
5135;SDS011;2586;48.710;9.202;2023-02-04T09:35:52;11.23;;;2.80;;
5135;SDS011;2586;48.710;9.202;2023-02-04T09:38:18;11.70;;;3.17;;
5135;SDS011;2586;48.710;9.202;2023-02-04T09:40:45;25.47;;;3.23;;
5135;SDS011;2586;48.710;9.202;2023-02-04T09:43:15;18.57;;;2.90;;
5135;SDS011;2586;48.710;9.202;2023-02-04T09:45:46;14.07;;;3.10;;
5135;SDS011;2586;48.710;9.202;2023-02-04T09:48:13;12.40;;;2.40;;
5135;SDS011;2586;48.710;9.202;2023-02-04T09:50:39;16.00;;;3.60;;
5135;SDS011;2586;48.710;9.202;2023-02-04T09:53:06;14.20;;;2.97;;
5135;SDS011;2586;48.710;9.202;2023-02-04T09:55:36;12.60;;;2.33;;
5135;SDS011;2586;48.710;9.202;2023-02-04T09:58:04;10.43;;;2.20;;
5135;SDS011;2586;48.710;9.202;2023-02-04T10:00:36;11.90;;;3.00;;
5135;SDS011;2586;48.710;9.202;2023-02-04T10:03:01;15.23;;;2.87;;
5135;SDS011;2586;48.710;9.202;2023-02-04T10:05:28;13.73;;;3.67;;
5135;SDS011;2586;48.710;9.202;2023-02-04T10:07:56;13.20;;;2.77;;
5135;SDS011;2586;48.710;9.202;2023-02-04T10:10:23;8.63;;;3.23;;
5135;SDS011;2586;48.710;9.202;2023-02-04T10:12:51;18.10;;;3.43;;
5135;SDS011;2586;48.710;9.202;2023-02-04T10:15:20;12.40;;;3.07;;
5135;SDS011;2586;48.710;9.202;2023-02-04T10:17:46;14.23;;;3.27;;
5135;SDS011;2586;48.710;9.202;2023-02-04T10:20:15;21.93;;;2.93;;
5135;SDS011;2586;48.710;9.202;2023-02-04T10:22:43;14.67;;;2.37;;
5135;SDS011;2586;48.710;9.202;2023-02-04T10:25:13;11.50;;;2.43;;
5135;SDS011;2586;48.710;9.202;2023-02-04T10:30:17;9.23;;;2.10;;
5135;SDS011;2586;48.710;9.202;2023-02-04T10:32:48;15.03;;;2.23;;
5135;SDS011;2586;48.710;9.202;2023-02-04T10:35:14;8.47;;;2.10;;
5135;SDS011;2586;48.710;9.202;2023-02-04T10:37:42;13.20;;;2.23;;
5135;SDS011;2586;48.710;9.202;2023-02-04T10:40:30;13.63;;;3.17;;
5135;SDS011;2586;48.710;9.202;2023-02-04T10:42:55;8.33;;;2.57;;
5135;SDS011;2586;48.710;9.202;2023-02-04T10:45:25;12.40;;;3.03;;
5135;SDS011;2586;48.710;9.202;2023-02-04T10:47:53;20.57;;;3.57;;
5135;SDS011;2586;48.710;9.202;2023-02-04T10:50:24;16.60;;;3.23;;
5135;SDS011;2586;48.710;9.202;2023-02-04T10:52:51;11.40;;;2.30;;
5135;SDS011;2586;48.710;9.202;2023-02-04T10:55:39;12.73;;;2.77;;
5135;SDS011;2586;48.710;9.202;2023-02-04T10:58:04;44.90;;;3.63;;
5135;SDS011;2586;48.710;9.202;2023-02-04T11:00:33;16.27;;;2.53;;
5135;SDS011;2586;48.710;9.202;2023-02-04T11:03:03;7.07;;;2.40;;
5135;SDS011;2586;48.710;9.202;2023-02-04T11:05:32;22.13;;;3.80;;
5135;SDS011;2586;48.710;9.202;2023-02-04T11:07:59;16.67;;;2.30;;
5135;SDS011;2586;48.710;9.202;2023-02-04T11:10:29;14.93;;;2.40;;
5135;SDS011;2586;48.710;9.202;2023-02-04T11:20:43;20.67;;;3.30;;
5135;SDS011;2586;48.710;9.202;2023-02-04T11:26:00;17.77;;;3.40;;
5135;SDS011;2586;48.710;9.202;2023-02-04T11:28:26;18.43;;;3.00;;
5135;SDS011;2586;48.710;9.202;2023-02-04T11:30:58;18.50;;;3.00;;
5135;SDS011;2586;48.710;9.202;2023-02-04T11:33:32;33.37;;;5.10;;
5135;SDS011;2586;48.710;9.202;2023-02-04T11:36:04;15.23;;;3.27;;
5135;SDS011;2586;48.710;9.202;2023-02-04T11:38:31;16.00;;;4.33;;
5135;SDS011;2586;48.710;9.202;2023-02-04T11:40:57;10.57;;;2.90;;
5135;SDS011;2586;48.710;9.202;2023-02-04T11:43:24;17.70;;;3.27;;
5135;SDS011;2586;48.710;9.202;2023-02-04T11:48:50;16.67;;;3.27;;
5135;SDS011;2586;48.710;9.202;2023-02-04T11:51:17;12.17;;;2.67;;
5135;SDS011;2586;48.710;9.202;2023-02-04T11:53:50;13.17;;;3.00;;
5135;SDS011;2586;48.710;9.202;2023-02-04T11:56:17;28.07;;;3.67;;
5135;SDS011;2586;48.710;9.202;2023-02-04T11:58:43;14.47;;;3.03;;
5135;SDS011;2586;48.710;9.202;2023-02-04T12:01:20;13.40;;;2.50;;
5135;SDS011;2586;48.710;9.202;2023-02-04T12:03:57;12.83;;;3.17;;
5135;SDS011;2586;48.710;9.202;2023-02-04T12:06:29;23.90;;;3.20;;
5135;SDS011;2586;48.710;9.202;2023-02-04T12:09:04;20.37;;;3.47;;
5135;SDS011;2586;48.710;9.202;2023-02-04T12:11:30;13.97;;;2.80;;
5135;SDS011;2586;48.710;9.202;2023-02-04T12:13:57;25.67;;;4.47;;
5135;SDS011;2586;48.710;9.202;2023-02-04T12:16:39;21.53;;;3.30;;
5135;SDS011;2586;48.710;9.202;2023-02-04T12:19:15;6.53;;;1.77;;
5135;SDS011;2586;48.710;9.202;2023-02-04T12:21:41;14.33;;;2.87;;
5135;SDS011;2586;48.710;9.202;2023-02-04T12:24:07;14.97;;;2.70;;
5135;SDS011;2586;48.710;9.202;2023-02-04T12:26:33;16.27;;;3.53;;
5135;SDS011;2586;48.710;9.202;2023-02-04T12:28:58;16.23;;;3.43;;
5135;SDS011;2586;48.710;9.202;2023-02-04T12:31:27;16.20;;;2.50;;
5135;SDS011;2586;48.710;9.202;2023-02-04T12:33:56;14.93;;;2.30;;
5135;SDS011;2586;48.710;9.202;2023-02-04T12:36:22;21.80;;;4.30;;
5135;SDS011;2586;48.710;9.202;2023-02-04T12:38:48;17.60;;;3.23;;
5135;SDS011;2586;48.710;9.202;2023-02-04T12:41:14;15.30;;;2.93;;
5135;SDS011;2586;48.710;9.202;2023-02-04T12:43:39;21.40;;;3.53;;
5135;SDS011;2586;48.710;9.202;2023-02-04T12:46:05;16.73;;;3.53;;
5135;SDS011;2586;48.710;9.202;2023-02-04T12:48:30;16.27;;;2.40;;
5135;SDS011;2586;48.710;9.202;2023-02-04T12:50:56;15.83;;;2.60;;
5135;SDS011;2586;48.710;9.202;2023-02-04T12:53:21;12.07;;;2.03;;
5135;SDS011;2586;48.710;9.202;2023-02-04T12:55:47;11.87;;;2.83;;
5135;SDS011;2586;48.710;9.202;2023-02-04T12:58:13;17.33;;;2.90;;
5135;SDS011;2586;48.710;9.202;2023-02-04T13:00:39;13.10;;;2.77;;
5135;SDS011;2586;48.710;9.202;2023-02-04T13:03:06;23.57;;;2.60;;
5135;SDS011;2586;48.710;9.202;2023-02-04T13:05:31;15.53;;;2.77;;
5135;SDS011;2586;48.710;9.202;2023-02-04T13:07:59;13.67;;;2.10;;
5135;SDS011;2586;48.710;9.202;2023-02-04T13:10:25;17.37;;;3.13;;
5135;SDS011;2586;48.710;9.202;2023-02-04T13:12:51;8.03;;;2.17;;
5135;SDS011;2586;48.710;9.202;2023-02-04T13:15:16;9.40;;;1.80;;
5135;SDS011;2586;48.710;9.202;2023-02-04T13:17:42;13.47;;;2.40;;
5135;SDS011;2586;48.710;9.202;2023-02-04T13:20:08;10.63;;;2.30;;
5135;SDS011;2586;48.710;9.202;2023-02-04T13:22:34;20.07;;;2.90;;
5135;SDS011;2586;48.710;9.202;2023-02-04T13:24:59;10.90;;;3.10;;
5135;SDS011;2586;48.710;9.202;2023-02-04T13:27:25;10.10;;;3.20;;
5135;SDS011;2586;48.710;9.202;2023-02-04T13:29:52;17.97;;;2.60;;
5135;SDS011;2586;48.710;9.202;2023-02-04T13:32:17;14.47;;;2.63;;
5135;SDS011;2586;48.710;9.202;2023-02-04T13:34:43;13.60;;;3.80;;
5135;SDS011;2586;48.710;9.202;2023-02-04T13:37:08;13.70;;;3.23;;
5135;SDS011;2586;48.710;9.202;2023-02-04T13:39:34;34.00;;;3.60;;
5135;SDS011;2586;48.710;9.202;2023-02-04T13:42:00;27.37;;;4.50;;
5135;SDS011;2586;48.710;9.202;2023-02-04T13:44:25;13.30;;;2.77;;
5135;SDS011;2586;48.710;9.202;2023-02-04T13:46:51;17.73;;;3.93;;
5135;SDS011;2586;48.710;9.202;2023-02-04T13:49:16;17.57;;;4.00;;
5135;SDS011;2586;48.710;9.202;2023-02-04T13:51:42;14.40;;;2.53;;
5135;SDS011;2586;48.710;9.202;2023-02-04T13:54:07;12.40;;;2.87;;
5135;SDS011;2586;48.710;9.202;2023-02-04T13:56:33;20.80;;;3.77;;
5135;SDS011;2586;48.710;9.202;2023-02-04T13:58:58;14.30;;;3.60;;
5135;SDS011;2586;48.710;9.202;2023-02-04T14:01:24;24.30;;;3.20;;
5135;SDS011;2586;48.710;9.202;2023-02-04T14:03:50;17.87;;;4.10;;
5135;SDS011;2586;48.710;9.202;2023-02-04T14:06:15;15.27;;;3.33;;
5135;SDS011;2586;48.710;9.202;2023-02-04T14:08:44;15.30;;;3.53;;
5135;SDS011;2586;48.710;9.202;2023-02-04T14:11:11;10.63;;;2.27;;
5135;SDS011;2586;48.710;9.202;2023-02-04T14:13:36;13.70;;;2.83;;
5135;SDS011;2586;48.710;9.202;2023-02-04T14:16:02;14.40;;;3.37;;
5135;SDS011;2586;48.710;9.202;2023-02-04T14:18:27;12.23;;;2.80;;
5135;SDS011;2586;48.710;9.202;2023-02-04T14:20:53;11.90;;;2.97;;
5135;SDS011;2586;48.710;9.202;2023-02-04T14:23:18;19.87;;;5.10;;
5135;SDS011;2586;48.710;9.202;2023-02-04T14:25:44;16.13;;;3.20;;
5135;SDS011;2586;48.710;9.202;2023-02-04T14:28:10;7.10;;;2.73;;
5135;SDS011;2586;48.710;9.202;2023-02-04T14:30:35;12.27;;;3.13;;
5135;SDS011;2586;48.710;9.202;2023-02-04T14:33:01;11.63;;;3.23;;
5135;SDS011;2586;48.710;9.202;2023-02-04T14:35:27;9.93;;;2.13;;
5135;SDS011;2586;48.710;9.202;2023-02-04T14:37:53;14.47;;;3.03;;
5135;SDS011;2586;48.710;9.202;2023-02-04T14:40:19;15.47;;;3.80;;
5135;SDS011;2586;48.710;9.202;2023-02-04T14:42:45;14.23;;;2.50;;
5135;SDS011;2586;48.710;9.202;2023-02-04T14:45:11;11.33;;;3.63;;
5135;SDS011;2586;48.710;9.202;2023-02-04T14:47:39;9.43;;;2.90;;
5135;SDS011;2586;48.710;9.202;2023-02-04T14:50:05;18.03;;;4.13;;
5135;SDS011;2586;48.710;9.202;2023-02-04T14:52:40;20.97;;;3.90;;
5135;SDS011;2586;48.710;9.202;2023-02-04T14:55:06;17.63;;;3.47;;
5135;SDS011;2586;48.710;9.202;2023-02-04T14:57:35;15.70;;;3.47;;
5135;SDS011;2586;48.710;9.202;2023-02-04T15:00:00;17.63;;;3.10;;
5135;SDS011;2586;48.710;9.202;2023-02-04T15:02:26;16.53;;;3.80;;
5135;SDS011;2586;48.710;9.202;2023-02-04T15:04:51;17.43;;;3.67;;
5135;SDS011;2586;48.710;9.202;2023-02-04T15:07:17;16.97;;;4.10;;
5135;SDS011;2586;48.710;9.202;2023-02-04T15:09:42;12.73;;;3.77;;
5135;SDS011;2586;48.710;9.202;2023-02-04T15:12:08;13.80;;;3.40;;
5135;SDS011;2586;48.710;9.202;2023-02-04T15:14:34;11.20;;;3.37;;
5135;SDS011;2586;48.710;9.202;2023-02-04T15:17:00;11.20;;;3.10;;
5135;SDS011;2586;48.710;9.202;2023-02-04T15:19:25;24.60;;;3.50;;